createdAt,value
2023-02-22T00:00:25.027Z,33.55
2023-02-22T00:01:28.644Z,33.59
2023-02-22T00:02:32.788Z,33.62
2023-02-22T00:03:36.541Z,33.67
2023-02-22T00:04:40.639Z,32.84
2023-02-22T00:05:45.425Z,33.73
2023-02-22T00:06:49.745Z,33.44
2023-02-22T00:07:53.432Z,33.51
2023-02-22T00:08:57.558Z,33.70
2023-02-22T00:10:01.227Z,33.69
2023-02-22T00:11:06.978Z,33.63
2023-02-22T00:12:10.555Z,33.64
2023-02-22T00:13:16.250Z,33.74
2023-02-22T00:14:19.977Z,33.06
2023-02-22T00:15:25.458Z,33.72
2023-02-22T00:16:29.084Z,33.80
2023-02-22T00:17:32.712Z,33.68
2023-02-22T00:18:36.506Z,33.85
2023-02-22T00:19:40.083Z,33.90
2023-02-22T00:20:43.720Z,33.95
2023-02-22T00:21:52.195Z,33.95
2023-02-22T00:22:55.973Z,33.88
2023-02-22T00:24:02.055Z,33.97
2023-02-22T00:25:06.130Z,33.55
2023-02-22T00:26:11.391Z,33.94
2023-02-22T00:27:15.092Z,34.01
2023-02-22T00:28:20.569Z,34.04
2023-02-22T00:29:24.834Z,34.03
2023-02-22T00:30:30.347Z,33.92
2023-02-22T00:31:38.767Z,33.92
2023-02-22T00:32:43.744Z,33.90
2023-02-22T00:33:47.734Z,33.64
2023-02-22T00:34:54.140Z,34.04
2023-02-22T00:36:01.508Z,34.02
2023-02-22T00:37:05.224Z,33.55
2023-02-22T00:38:09.232Z,34.01
2023-02-22T00:39:13.021Z,34.05
2023-02-22T00:40:18.558Z,33.80
2023-02-22T00:41:22.253Z,34.08
2023-02-22T00:42:25.860Z,34.12
2023-02-22T00:43:31.163Z,34.12
2023-02-22T00:44:34.738Z,34.06
2023-02-22T00:45:38.905Z,33.93
2023-02-22T00:46:42.500Z,34.04
2023-02-22T00:47:46.354Z,34.29
2023-02-22T00:48:50.011Z,34.33
2023-02-22T00:49:53.753Z,34.25
2023-02-22T00:50:57.460Z,34.34
2023-02-22T00:52:01.058Z,34.34
2023-02-22T00:53:06.158Z,34.25
2023-02-22T00:54:09.925Z,34.26
2023-02-22T00:55:18.476Z,34.28
2023-02-22T00:56:22.370Z,34.32
2023-02-22T00:57:26.681Z,34.38
2023-02-22T00:58:32.108Z,34.33
2023-02-22T00:59:35.782Z,34.20
2023-02-22T01:00:41.552Z,34.34
2023-02-22T01:01:45.634Z,34.47
2023-02-22T01:02:50.039Z,34.51
2023-02-22T01:03:53.723Z,34.31
2023-02-22T01:04:57.734Z,33.92
2023-02-22T01:06:01.412Z,34.43
2023-02-22T01:07:05.119Z,34.41
2023-02-22T01:08:10.850Z,34.46
2023-02-22T01:09:14.427Z,34.24
2023-02-22T01:10:21.127Z,34.57
2023-02-22T01:11:24.882Z,34.59
2023-02-22T01:12:28.682Z,34.53
2023-02-22T01:13:33.970Z,34.68
2023-02-22T01:14:37.526Z,34.78
2023-02-22T01:15:43.137Z,34.75
2023-02-22T01:16:46.797Z,34.72
2023-02-22T01:17:51.692Z,34.79
2023-02-22T01:18:55.305Z,34.78
2023-02-22T01:19:59.067Z,34.72
2023-02-22T01:21:02.798Z,34.89
2023-02-22T01:22:06.458Z,34.92
2023-02-22T01:23:10.266Z,34.99
2023-02-22T01:24:13.967Z,35.02
2023-02-22T01:25:19.663Z,34.94
2023-02-22T01:26:23.270Z,34.90
2023-02-22T01:27:26.855Z,34.85
2023-02-22T01:28:30.657Z,34.91
2023-02-22T01:29:35.936Z,34.91
2023-02-22T01:30:39.663Z,34.97
2023-02-22T01:31:43.569Z,34.86
2023-02-22T01:32:47.370Z,34.84
2023-02-22T01:33:51.062Z,34.84
2023-02-22T01:34:55.214Z,34.81
2023-02-22T01:35:59.189Z,34.80
2023-02-22T01:37:02.938Z,34.83
2023-02-22T01:38:06.525Z,34.89
2023-02-22T01:39:10.177Z,34.96
2023-02-22T01:40:19.057Z,34.79
2023-02-22T01:41:22.938Z,34.87
2023-02-22T01:42:26.621Z,34.71
2023-02-22T01:43:31.678Z,34.62
2023-02-22T01:44:38.882Z,34.76
2023-02-22T01:46:00.439Z,34.93
2023-02-22T01:47:05.295Z,34.41
2023-02-22T01:48:13.513Z,35.11
2023-02-22T01:49:17.616Z,35.17
2023-02-22T01:50:21.289Z,35.22
2023-02-22T01:51:29.186Z,35.25
2023-02-22T01:52:33.002Z,35.34
2023-02-22T01:53:43.939Z,35.29
2023-02-22T01:54:52.143Z,35.40
2023-02-22T01:55:57.262Z,35.41
2023-02-22T01:57:05.351Z,35.36
2023-02-22T01:58:10.098Z,35.35
2023-02-22T01:59:14.864Z,35.15
2023-02-22T02:00:21.589Z,35.30
2023-02-22T02:01:27.098Z,35.35
2023-02-22T02:02:30.881Z,35.24
2023-02-22T02:03:39.121Z,35.21
2023-02-22T02:04:43.507Z,35.38
2023-02-22T02:05:47.583Z,35.30
2023-02-22T02:06:52.417Z,35.48
2023-02-22T02:07:56.299Z,35.50
2023-02-22T02:09:12.286Z,35.41
2023-02-22T11:31:58.054Z,35.16
2023-02-22T11:33:17.267Z,36.10
2023-02-22T11:34:30.655Z,36.59
2023-02-22T11:35:39.491Z,36.84
2023-02-22T11:36:44.273Z,36.96
2023-02-22T11:37:47.878Z,37.09
2023-02-22T11:38:56.432Z,37.18
2023-02-22T11:40:09.324Z,37.11
2023-02-22T11:41:18.259Z,37.24
2023-02-22T11:42:26.918Z,37.20
2023-02-22T11:43:30.608Z,37.27
2023-02-22T11:44:36.733Z,37.23
2023-02-22T11:45:53.033Z,37.27
2023-02-22T11:47:06.274Z,37.22
2023-02-22T11:48:19.783Z,37.21
2023-02-22T11:49:26.134Z,37.16
2023-02-22T11:50:34.048Z,37.20
2023-02-22T11:51:50.165Z,36.94
2023-02-22T11:53:14.692Z,37.17
2023-02-22T11:54:40.318Z,37.16
2023-02-22T11:55:53.632Z,37.21
2023-02-22T11:57:08.105Z,37.22
2023-02-22T11:58:27.642Z,37.22
2023-02-22T11:59:39.077Z,37.11
2023-02-22T12:00:53.663Z,37.02
2023-02-22T12:01:58.992Z,36.94
2023-02-22T12:03:23.629Z,36.94
2023-02-22T12:05:02.716Z,36.95
2023-02-22T12:06:18.822Z,36.90
2023-02-22T12:07:38.882Z,36.88
2023-02-22T12:08:55.133Z,36.88
2023-02-22T12:10:08.774Z,36.84
2023-02-22T12:11:19.626Z,36.63
2023-02-22T12:12:30.185Z,36.82
2023-02-22T12:13:48.798Z,36.82
2023-02-22T12:15:03.822Z,36.80
2023-02-22T12:16:20.382Z,36.71
2023-02-22T12:17:33.812Z,36.68
2023-02-22T12:18:45.053Z,36.76
2023-02-22T12:19:51.722Z,36.44
2023-02-22T12:20:59.391Z,36.81
2023-02-22T12:22:09.050Z,36.79
2023-02-22T12:23:19.808Z,36.82
2023-02-22T12:24:27.628Z,36.80
2023-02-22T12:25:36.154Z,36.76
2023-02-22T12:26:42.682Z,36.72
2023-02-22T12:27:49.680Z,36.76
2023-02-22T12:28:57.180Z,36.76
2023-02-22T12:30:05.756Z,36.74
2023-02-22T12:31:20.624Z,36.74
2023-02-22T12:32:33.503Z,36.74
2023-02-22T12:33:58.116Z,36.77
2023-02-22T12:35:09.964Z,36.51
2023-02-22T12:36:18.472Z,36.45
2023-02-22T12:37:28.277Z,36.68
2023-02-22T12:38:38.838Z,36.65
2023-02-22T12:39:54.062Z,36.57
2023-02-22T12:41:05.840Z,36.45
2023-02-22T12:42:17.754Z,36.60
2023-02-22T12:43:27.918Z,36.62
2023-02-22T12:44:36.166Z,36.61
2023-02-22T12:45:47.596Z,36.63
2023-02-22T12:46:53.200Z,36.64
2023-02-22T12:48:06.079Z,36.53
2023-02-22T12:49:17.341Z,36.59
2023-02-22T12:50:23.772Z,36.54
2023-02-22T12:51:33.183Z,36.30
2023-02-22T12:52:45.302Z,36.49
2023-02-22T12:53:56.519Z,36.55
2023-02-22T12:55:05.471Z,36.57
2023-02-22T12:56:21.633Z,36.26
2023-02-22T12:57:35.718Z,36.53
2023-02-22T12:58:45.942Z,36.57
2023-02-22T12:59:53.760Z,36.58
2023-02-22T13:01:05.891Z,36.60
2023-02-22T13:02:16.850Z,36.45
2023-02-22T13:03:35.735Z,36.46
2023-02-22T13:04:41.007Z,36.55
2023-02-22T13:05:50.310Z,36.52
2023-02-22T13:07:28.089Z,36.54
2023-02-22T13:08:38.584Z,36.53
2023-02-22T13:10:34.607Z,36.48
2023-02-22T13:11:44.395Z,36.51
2023-02-22T13:12:57.963Z,36.44
2023-02-22T13:14:17.656Z,36.50
2023-02-22T13:15:29.121Z,36.48
2023-02-22T13:16:42.267Z,36.37
2023-02-22T13:17:54.425Z,36.50
2023-02-22T13:19:04.729Z,36.48
2023-02-22T13:20:18.486Z,36.45
2023-02-22T13:21:30.770Z,36.44
2023-02-22T13:22:41.187Z,36.43
2023-02-22T13:23:54.809Z,36.45
2023-02-22T13:25:10.163Z,36.39
2023-02-22T13:26:19.652Z,36.42
2023-02-22T13:27:28.187Z,36.43
2023-02-22T13:28:36.710Z,36.29
2023-02-22T13:29:46.522Z,36.40
2023-02-22T13:31:02.703Z,36.39
2023-02-22T13:32:30.376Z,36.38
2023-02-22T13:33:53.012Z,36.32
2023-02-22T13:35:16.153Z,36.32
2023-02-22T13:36:36.659Z,36.31
2023-02-22T13:38:11.034Z,36.44
2023-02-22T13:40:03.441Z,36.29
2023-02-22T13:41:52.107Z,36.49
2023-02-22T13:43:09.106Z,36.43
2023-02-22T13:44:44.465Z,36.45
2023-02-22T13:46:29.857Z,36.47
2023-02-22T13:48:15.336Z,36.48
2023-02-22T13:49:42.038Z,36.47
2023-02-22T13:51:04.245Z,36.46
2023-02-22T13:52:13.060Z,36.48
2023-02-22T13:53:22.436Z,36.44
2023-02-22T13:54:39.559Z,36.45
2023-02-22T13:55:53.572Z,36.45
2023-02-22T13:56:58.565Z,36.44
2023-02-22T13:58:04.765Z,36.45
2023-02-22T13:59:08.543Z,36.47
2023-02-22T14:00:39.998Z,36.49
2023-02-22T14:01:46.335Z,36.48
2023-02-22T14:03:02.633Z,36.48
2023-02-22T14:04:33.515Z,36.48
2023-02-22T14:05:47.770Z,36.44
2023-02-22T14:06:53.508Z,36.45
2023-02-22T14:07:57.412Z,36.46
2023-02-22T14:09:02.299Z,36.45
2023-02-22T14:10:06.367Z,36.42
2023-02-22T14:11:51.090Z,36.41
2023-02-22T14:12:56.454Z,36.26
2023-02-22T14:14:17.050Z,36.45
2023-02-22T14:15:29.592Z,36.36
2023-02-22T14:16:37.448Z,36.42
2023-02-22T14:17:41.998Z,36.42
2023-02-22T14:18:47.709Z,36.42
2023-02-22T14:20:22.779Z,36.42
2023-02-22T14:21:26.572Z,36.34
2023-02-22T14:22:32.284Z,36.33
2023-02-22T14:23:37.838Z,36.38
2023-02-22T14:24:46.407Z,36.38
2023-02-22T14:25:50.825Z,36.42
2023-02-22T14:27:01.557Z,36.40
2023-02-22T14:28:07.307Z,36.38
2023-02-22T14:29:18.597Z,36.36
2023-02-22T14:30:29.423Z,36.39
2023-02-22T14:31:37.295Z,36.37
2023-02-22T14:32:43.746Z,36.30
2023-02-22T14:34:00.581Z,36.33
2023-02-22T14:35:26.607Z,36.32
2023-02-22T14:36:45.785Z,36.32
2023-02-22T14:37:55.977Z,36.10
2023-02-22T14:39:10.323Z,36.32
2023-02-22T14:40:22.700Z,36.32
2023-02-22T14:41:47.338Z,36.32
2023-02-22T14:42:59.626Z,36.30
2023-02-22T14:44:12.336Z,36.31
2023-02-22T14:45:23.908Z,36.25
2023-02-22T14:46:30.355Z,36.10
2023-02-22T14:47:45.404Z,36.21
2023-02-22T14:48:53.610Z,36.13
2023-02-22T14:50:04.589Z,36.19
2023-02-22T14:51:21.817Z,36.23
2023-02-22T14:52:29.758Z,36.25
2023-02-22T14:53:41.184Z,36.24
2023-02-22T14:54:58.974Z,36.24
2023-02-22T14:56:06.172Z,36.25
2023-02-22T14:57:20.068Z,36.25
2023-02-22T14:58:30.273Z,36.23
2023-02-22T14:59:36.026Z,36.22
2023-02-22T15:00:42.119Z,36.19
2023-02-22T15:01:53.240Z,36.19
2023-02-22T15:03:05.727Z,36.20
2023-02-22T15:04:19.854Z,36.16
2023-02-22T15:05:23.675Z,36.15
2023-02-22T15:06:29.072Z,36.16
2023-02-22T15:07:33.790Z,36.14
2023-02-22T15:08:39.120Z,35.94
2023-02-22T15:09:42.691Z,36.13
2023-02-22T15:10:47.575Z,36.10
2023-02-22T15:11:52.463Z,36.10
2023-02-22T15:13:01.781Z,36.09
2023-02-22T15:14:25.721Z,36.10
2023-02-22T15:15:32.473Z,36.09
2023-02-22T15:16:38.325Z,36.09
2023-02-22T15:17:42.502Z,36.07
2023-02-22T15:18:48.699Z,36.07
2023-02-22T15:19:54.049Z,36.08
2023-02-22T15:21:00.130Z,36.04
2023-02-22T15:22:04.379Z,36.03
2023-02-22T15:23:11.614Z,36.04
2023-02-22T15:24:25.375Z,36.04
2023-02-22T15:25:31.574Z,36.05
2023-02-22T15:26:37.516Z,35.94
2023-02-22T15:28:06.092Z,36.01
2023-02-22T15:29:13.895Z,35.99
2023-02-22T15:30:23.368Z,35.99
2023-02-22T15:31:31.009Z,35.99
2023-02-22T15:32:36.759Z,36.00
2023-02-22T15:33:40.667Z,35.99
2023-02-22T15:34:44.244Z,35.97
2023-02-22T15:35:55.746Z,35.97
2023-02-22T15:37:13.474Z,35.99
2023-02-22T15:38:22.666Z,35.97
2023-02-22T15:39:29.750Z,35.94
2023-02-22T15:40:33.994Z,35.96
2023-02-22T15:41:37.595Z,35.91
2023-02-22T15:42:45.888Z,35.90
2023-02-22T15:44:08.001Z,35.88
2023-02-22T15:45:19.341Z,35.89
2023-02-22T15:46:22.997Z,35.88
2023-02-22T15:47:28.915Z,35.58
2023-02-22T15:48:32.512Z,35.90
2023-02-22T15:49:36.112Z,35.86
2023-02-22T15:50:39.791Z,35.86
2023-02-22T15:51:44.641Z,35.85
2023-02-22T15:52:55.113Z,35.84
2023-02-22T15:54:03.569Z,35.61
2023-02-22T15:55:12.019Z,35.80
2023-02-22T15:56:18.760Z,35.81
2023-02-22T15:57:24.129Z,35.82
2023-02-22T15:58:29.186Z,35.83
2023-02-22T15:59:32.821Z,35.84
2023-02-22T16:00:38.327Z,35.85
2023-02-22T16:01:44.242Z,35.84
2023-02-22T16:02:48.876Z,35.85
2023-02-22T16:03:55.040Z,35.85
2023-02-22T16:05:04.352Z,35.83
2023-02-22T16:06:12.269Z,35.84
2023-02-22T16:07:18.056Z,35.83
2023-02-22T16:08:25.281Z,35.84
2023-02-22T16:09:29.007Z,35.85
2023-02-22T16:10:34.427Z,35.85
2023-02-22T16:11:39.572Z,35.82
2023-02-22T16:12:43.259Z,35.81
2023-02-22T16:13:53.571Z,35.79
2023-02-22T16:14:58.665Z,35.77
2023-02-22T16:16:03.796Z,35.77
2023-02-22T16:17:25.170Z,35.79
2023-02-22T16:18:31.013Z,35.77
2023-02-22T16:19:40.726Z,35.75
2023-02-22T16:20:46.055Z,35.71
2023-02-22T16:21:53.820Z,35.69
2023-02-22T16:22:58.861Z,35.67
2023-02-22T16:24:15.111Z,35.65
2023-02-22T16:25:34.208Z,35.60
2023-02-22T16:26:37.790Z,35.57
2023-02-22T16:27:43.805Z,35.55
2023-02-22T16:28:51.958Z,35.55
2023-02-22T16:30:23.260Z,35.02
2023-02-22T16:31:29.766Z,35.49
2023-02-22T16:32:33.561Z,35.57
2023-02-22T16:33:39.974Z,35.48
2023-02-22T16:34:44.738Z,35.58
2023-02-22T16:35:48.352Z,35.57
2023-02-22T16:36:52.310Z,35.53
2023-02-22T16:38:01.426Z,35.55
2023-02-22T16:39:07.297Z,35.57
2023-02-22T16:40:13.850Z,35.55
2023-02-22T16:41:19.639Z,35.53
2023-02-22T16:42:23.448Z,35.56
2023-02-22T16:43:29.038Z,35.51
2023-02-22T16:44:34.633Z,35.54
2023-02-22T16:45:39.252Z,35.53
2023-02-22T16:46:44.075Z,35.52
2023-02-22T16:47:47.728Z,35.53
2023-02-22T16:48:51.321Z,35.49
2023-02-22T16:49:54.976Z,35.51
2023-02-22T16:51:00.586Z,35.51
2023-02-22T16:52:08.314Z,35.51
2023-02-22T16:53:12.081Z,35.52
2023-02-22T16:54:20.775Z,35.49
2023-02-22T16:55:24.353Z,35.45
2023-02-22T16:56:31.323Z,35.48
2023-02-22T16:57:35.146Z,35.48
2023-02-22T16:58:41.797Z,35.50
2023-02-22T16:59:45.686Z,35.50
2023-02-22T17:00:49.537Z,35.48
2023-02-22T17:01:53.178Z,35.51
2023-02-22T17:02:56.836Z,35.52
2023-02-22T17:04:00.379Z,35.50
2023-02-22T17:05:04.044Z,35.49
2023-02-22T17:06:08.313Z,35.49
2023-02-22T17:07:12.096Z,35.43
2023-02-22T17:08:15.798Z,35.47
2023-02-22T17:09:19.560Z,35.46
2023-02-22T17:10:23.281Z,35.45
2023-02-22T17:11:31.566Z,35.45
2023-02-22T17:12:35.271Z,35.45
2023-02-22T17:13:43.319Z,35.43
2023-02-22T17:14:47.786Z,35.43
2023-02-22T17:15:51.967Z,35.43
2023-02-22T17:16:55.828Z,35.43
2023-02-22T17:18:00.408Z,35.44
2023-02-22T17:19:04.181Z,35.42
2023-02-22T17:20:08.644Z,35.40
2023-02-22T17:21:13.067Z,35.39
2023-02-22T17:22:20.885Z,35.38
2023-02-22T17:23:25.157Z,35.41
2023-02-22T17:24:28.890Z,35.38
2023-02-22T17:25:37.371Z,35.37
2023-02-22T17:26:42.830Z,35.36
2023-02-22T17:27:46.703Z,35.34
2023-02-22T17:28:50.413Z,35.33
2023-02-22T17:29:54.285Z,35.32
2023-02-22T17:30:59.573Z,35.29
2023-02-22T17:32:04.898Z,35.24
2023-02-22T17:33:10.067Z,35.27
2023-02-22T17:34:13.725Z,35.24
2023-02-22T17:35:19.037Z,35.29
2023-02-22T17:36:22.704Z,35.32
2023-02-22T17:37:26.427Z,35.30
2023-02-22T17:38:30.580Z,35.30
2023-02-22T17:39:34.327Z,35.30
2023-02-22T17:40:39.903Z,35.28
2023-02-22T17:41:45.533Z,35.30
2023-02-22T17:42:49.336Z,35.32
2023-02-22T17:43:53.151Z,35.22
2023-02-22T17:44:56.734Z,35.28
2023-02-22T17:46:00.611Z,35.27
2023-02-22T17:47:04.478Z,35.26
2023-02-22T17:48:09.100Z,35.13
2023-02-22T17:49:12.794Z,35.24
2023-02-22T17:50:16.522Z,35.24
2023-02-22T17:51:20.620Z,35.25
2023-02-22T17:52:24.462Z,35.25
2023-02-22T17:53:28.061Z,35.26
2023-02-22T17:54:31.720Z,35.28
2023-02-22T17:55:36.960Z,35.28
2023-02-22T17:56:40.751Z,35.24
2023-02-22T17:57:46.278Z,35.21
2023-02-22T17:58:51.929Z,35.23
2023-02-22T17:59:55.685Z,35.23
2023-02-22T18:00:59.447Z,35.21
2023-02-22T18:02:03.331Z,35.26
2023-02-22T18:03:08.887Z,35.28
2023-02-22T18:04:12.666Z,35.27
2023-02-22T18:05:40.937Z,35.28
2023-02-22T18:06:44.952Z,35.28
2023-02-22T18:07:48.614Z,35.27
2023-02-22T18:08:54.125Z,35.23
2023-02-22T18:09:59.548Z,35.22
2023-02-22T18:11:27.085Z,35.24
2023-02-22T18:12:30.788Z,35.24
2023-02-22T18:13:36.117Z,35.23
2023-02-22T18:14:54.162Z,35.21
2023-02-22T18:15:59.416Z,35.19
2023-02-22T18:17:03.057Z,35.20
2023-02-22T18:18:09.827Z,35.20
2023-02-22T18:19:17.162Z,35.18
2023-02-22T18:20:20.958Z,35.18
2023-02-22T18:21:25.309Z,35.16
2023-02-22T18:22:28.988Z,35.13
2023-02-22T18:23:41.094Z,35.13
2023-02-22T18:24:44.754Z,35.13
2023-02-22T18:26:03.890Z,35.14
2023-02-22T18:27:13.126Z,35.13
2023-02-22T18:28:17.439Z,35.11
2023-02-22T18:29:22.699Z,35.12
2023-02-22T18:30:50.901Z,35.12
2023-02-22T18:31:54.600Z,35.10
2023-02-22T18:32:58.289Z,35.13
2023-02-22T18:34:01.891Z,35.10
2023-02-22T18:35:06.443Z,35.05
2023-02-22T18:36:10.631Z,34.91
2023-02-22T18:37:14.249Z,35.11
2023-02-22T18:38:17.887Z,35.09
2023-02-22T18:39:21.630Z,35.09
2023-02-22T18:40:25.192Z,35.09
2023-02-22T18:41:28.850Z,35.07
2023-02-22T18:42:32.389Z,35.02
2023-02-22T18:43:35.986Z,34.92
2023-02-22T18:44:41.420Z,35.07
2023-02-22T18:45:45.110Z,34.87
2023-02-22T18:46:48.902Z,34.85
2023-02-22T18:47:52.696Z,35.01
2023-02-22T18:48:57.295Z,35.04
2023-02-22T18:50:00.876Z,35.04
2023-02-22T18:51:05.986Z,35.04
2023-02-22T18:52:09.564Z,35.04
2023-02-22T18:53:13.216Z,34.86
2023-02-22T18:54:16.871Z,35.04
2023-02-22T18:55:21.397Z,34.88
2023-02-22T18:56:25.040Z,35.01
2023-02-22T18:57:28.724Z,34.98
2023-02-22T18:58:32.504Z,35.00
2023-02-22T18:59:36.075Z,34.98
2023-02-22T19:00:41.341Z,35.00
2023-02-22T19:01:44.986Z,35.01
2023-02-22T19:02:48.590Z,34.98
2023-02-22T19:03:52.666Z,34.98
2023-02-22T19:04:56.418Z,34.97
2023-02-22T19:06:02.662Z,34.78
2023-02-22T19:07:06.275Z,34.95
2023-02-22T19:08:09.885Z,34.93
2023-02-22T19:09:13.474Z,34.92
2023-02-22T19:10:17.322Z,34.92
2023-02-22T19:11:22.829Z,34.76
2023-02-22T19:12:26.438Z,34.88
2023-02-22T19:13:30.023Z,34.90
2023-02-22T19:14:33.553Z,34.91
2023-02-22T19:15:37.400Z,34.92
2023-02-22T19:16:42.627Z,34.91
2023-02-22T19:17:46.417Z,34.89
2023-02-22T19:18:51.103Z,34.93
2023-02-22T19:19:54.810Z,34.93
2023-02-22T19:20:58.602Z,34.92
2023-02-22T19:22:02.218Z,34.84
2023-02-22T19:23:05.813Z,34.93
2023-02-22T19:24:09.587Z,34.94
2023-02-22T19:25:13.251Z,34.94
2023-02-22T19:26:18.832Z,34.95
2023-02-22T19:27:22.945Z,34.94
2023-02-22T19:28:26.536Z,34.93
2023-02-22T19:29:30.237Z,34.91
2023-02-22T19:30:33.884Z,34.90
2023-02-22T19:31:39.442Z,34.89
2023-02-22T19:32:45.551Z,34.88
2023-02-22T19:33:50.089Z,34.88
2023-02-22T19:34:53.816Z,34.88
2023-02-22T19:36:01.417Z,34.83
2023-02-22T19:37:05.462Z,34.85
2023-02-22T19:38:09.096Z,34.84
2023-02-22T19:39:12.937Z,34.83
2023-02-22T19:40:16.606Z,34.81
2023-02-22T19:41:21.985Z,34.81
2023-02-22T19:42:25.732Z,34.80
2023-02-22T19:43:29.377Z,34.79
2023-02-22T19:44:33.239Z,34.61
2023-02-22T19:45:40.419Z,34.79
2023-02-22T19:46:44.273Z,34.79
2023-02-22T19:47:53.701Z,34.78
2023-02-22T19:48:57.523Z,34.79
2023-02-22T19:50:01.104Z,34.78
2023-02-22T19:51:07.333Z,34.73
2023-02-22T19:52:10.935Z,34.71
2023-02-22T19:53:14.540Z,34.73
2023-02-22T19:54:18.880Z,34.71
2023-02-22T19:55:22.522Z,34.71
2023-02-22T19:56:26.874Z,34.70
2023-02-22T19:57:30.656Z,34.71
2023-02-22T19:58:34.288Z,34.71
2023-02-22T19:59:38.024Z,34.72
2023-02-22T20:02:16.007Z,34.71
2023-02-22T20:03:21.393Z,34.68
2023-02-22T20:04:25.310Z,34.67
2023-02-22T20:05:28.981Z,34.69
2023-02-22T20:06:34.371Z,34.69
2023-02-22T20:07:38.584Z,34.69
2023-02-22T20:08:42.407Z,34.67
2023-02-22T20:09:46.070Z,34.68
2023-02-22T20:10:49.690Z,34.67
2023-02-22T20:11:53.314Z,34.63
2023-02-22T20:12:57.062Z,34.67
2023-02-22T20:14:01.134Z,34.68
2023-02-22T20:15:04.993Z,34.68
2023-02-22T20:16:09.114Z,34.67
2023-02-22T20:17:12.736Z,34.67
2023-02-22T20:18:16.389Z,34.66
2023-02-22T20:19:21.807Z,34.66
2023-02-22T20:20:25.399Z,34.66
2023-02-22T20:21:31.308Z,34.66
2023-02-22T20:22:35.044Z,34.66
2023-02-22T20:23:39.159Z,34.66
2023-02-22T20:24:42.947Z,34.65
2023-02-22T20:25:53.515Z,34.62
2023-02-22T20:26:57.824Z,34.60
2023-02-22T20:28:01.472Z,34.61
2023-02-22T20:29:06.332Z,34.61
2023-02-22T20:30:11.142Z,34.61
2023-02-22T20:31:16.421Z,34.61
2023-02-22T20:32:20.521Z,34.59
2023-02-22T20:33:24.384Z,34.61
2023-02-22T20:34:30.509Z,34.61
2023-02-22T20:35:34.727Z,34.60
2023-02-22T20:36:40.048Z,34.20
2023-02-22T20:37:43.855Z,34.41
2023-02-22T20:38:47.445Z,34.55
2023-02-22T20:39:52.124Z,34.58
2023-02-22T20:40:55.714Z,34.54
2023-02-22T20:41:59.423Z,34.57
2023-02-22T20:43:03.025Z,34.53
2023-02-22T20:44:06.642Z,34.56
2023-02-22T20:45:12.019Z,34.56
2023-02-22T20:46:15.765Z,34.55
2023-02-22T20:47:19.367Z,34.57
2023-02-22T20:48:22.952Z,34.56
2023-02-22T20:49:28.168Z,34.46
2023-02-22T20:50:32.204Z,34.55
2023-02-22T20:51:36.525Z,34.55
2023-02-22T20:52:40.154Z,34.55
2023-02-22T20:53:44.136Z,34.54
2023-02-22T20:54:47.732Z,34.54
2023-02-22T20:55:52.208Z,34.53
2023-02-22T20:56:55.831Z,34.52
2023-02-22T20:57:59.493Z,34.51
2023-02-22T20:59:04.599Z,34.51
2023-02-22T21:00:08.887Z,34.52
2023-02-22T21:01:14.239Z,34.51
2023-02-22T21:02:17.875Z,34.47
2023-02-22T21:03:22.621Z,34.47
2023-02-22T21:04:26.279Z,34.47
2023-02-22T21:05:33.399Z,34.47
2023-02-22T21:06:38.563Z,34.47
2023-02-22T21:07:42.314Z,34.46
2023-02-22T21:08:49.636Z,34.14
2023-02-22T21:09:53.241Z,34.42
2023-02-22T21:10:56.860Z,34.41
2023-02-22T21:12:00.584Z,34.41
2023-02-22T21:13:08.021Z,34.40
2023-02-22T21:14:17.549Z,34.41
2023-02-22T21:15:21.126Z,34.44
2023-02-22T21:16:26.852Z,34.43
2023-02-22T21:17:30.487Z,34.43
2023-02-22T21:18:34.215Z,34.41
2023-02-22T21:19:37.778Z,34.43
2023-02-22T21:20:43.233Z,34.33
2023-02-22T21:21:46.874Z,34.42
2023-02-22T21:22:50.508Z,34.42
2023-02-22T21:23:55.838Z,34.40
2023-02-22T21:24:59.434Z,34.37
2023-02-22T21:26:03.147Z,34.38
2023-02-22T21:27:06.844Z,34.37
2023-02-22T21:28:10.557Z,34.37
2023-02-22T21:29:14.238Z,34.39
2023-02-22T21:30:18.322Z,34.39
2023-02-22T21:31:23.838Z,34.39
2023-02-22T21:32:27.844Z,34.36
2023-02-22T21:33:31.470Z,34.35
2023-02-22T21:34:35.252Z,34.33
2023-02-22T21:35:38.919Z,34.35
2023-02-22T21:36:44.759Z,34.36
2023-02-22T21:37:48.363Z,34.36
2023-02-22T21:38:55.165Z,34.36
2023-02-22T21:39:58.842Z,34.39
2023-02-22T21:41:02.441Z,34.32
2023-02-22T21:42:06.236Z,34.38
2023-02-22T21:43:09.818Z,34.37
2023-02-22T21:44:14.308Z,34.36
2023-02-22T21:45:18.633Z,34.35
2023-02-22T21:46:23.023Z,34.34
2023-02-22T21:47:26.896Z,34.32
2023-02-22T21:48:30.560Z,34.32
2023-02-22T21:49:34.138Z,34.32
2023-02-22T21:50:37.785Z,34.31
2023-02-22T21:51:43.416Z,34.31
2023-02-22T21:52:47.994Z,34.30
2023-02-22T21:53:54.010Z,34.30
2023-02-22T21:54:57.594Z,34.14
2023-02-22T21:56:05.169Z,34.28
2023-02-22T21:57:08.874Z,34.27
2023-02-22T21:58:12.557Z,34.25
2023-02-22T21:59:18.133Z,34.25
2023-02-22T22:00:22.006Z,34.25
2023-02-22T22:01:25.844Z,34.18
2023-02-22T22:02:29.773Z,34.22
2023-02-22T22:03:33.852Z,34.17
2023-02-22T22:04:37.509Z,34.20
2023-02-22T22:05:41.285Z,34.18
2023-02-22T22:06:55.856Z,34.18
2023-02-22T22:07:59.532Z,34.20
2023-02-22T22:09:03.442Z,34.19
2023-02-22T22:10:07.491Z,34.21
2023-02-22T22:11:12.844Z,34.20
2023-02-22T22:12:16.450Z,34.19
2023-02-22T22:13:20.152Z,34.18
2023-02-22T22:14:25.614Z,34.16
2023-02-22T22:15:29.279Z,34.15
2023-02-22T22:16:32.899Z,34.15
2023-02-22T22:17:36.509Z,34.17
2023-02-22T22:18:42.398Z,34.17
2023-02-22T22:19:45.985Z,34.15
2023-02-22T22:20:49.562Z,34.17
2023-02-22T22:21:54.862Z,34.16
2023-02-22T22:22:58.499Z,34.16
2023-02-22T22:24:02.194Z,34.16
2023-02-22T22:25:06.452Z,34.14
2023-02-22T22:26:11.352Z,34.16
2023-02-22T22:27:14.990Z,34.15
2023-02-22T22:28:18.641Z,34.15
2023-02-22T22:29:23.109Z,34.15
2023-02-22T22:30:26.725Z,34.19
2023-02-22T22:31:30.813Z,34.17
2023-02-22T22:32:34.549Z,34.18
2023-02-22T22:33:41.150Z,34.17
2023-02-22T22:34:44.832Z,34.18
2023-02-22T22:35:48.418Z,34.17
2023-02-22T22:36:53.691Z,34.18
2023-02-22T22:37:57.359Z,34.21
2023-02-22T22:39:01.022Z,34.21
2023-02-22T22:40:04.869Z,34.23
2023-02-22T22:41:09.677Z,34.21
2023-02-22T22:42:13.402Z,34.22
2023-02-22T22:43:17.055Z,34.22
2023-02-22T22:44:20.672Z,34.23
2023-02-22T22:45:24.352Z,34.19
2023-02-22T22:46:28.002Z,34.18
2023-02-22T22:47:31.745Z,34.14
2023-02-22T22:48:37.135Z,34.14
2023-02-22T22:49:40.802Z,34.11
2023-02-22T22:50:44.410Z,34.11
2023-02-22T22:51:48.043Z,34.10
2023-02-22T22:52:53.720Z,34.12
2023-02-22T22:53:59.084Z,34.13
2023-02-22T22:55:02.692Z,34.13
2023-02-22T22:56:09.163Z,34.15
2023-02-22T22:57:13.045Z,34.15
2023-02-22T22:58:16.708Z,34.15
2023-02-22T22:59:20.344Z,34.17
2023-02-22T23:00:24.023Z,34.14
2023-02-22T23:01:29.721Z,34.11
2023-02-22T23:02:33.269Z,33.89
2023-02-22T23:03:37.023Z,33.98
2023-02-22T23:04:40.745Z,33.99
2023-02-22T23:05:44.476Z,33.99
2023-02-22T23:06:49.774Z,34.02
2023-02-22T23:07:55.961Z,34.04
2023-02-22T23:09:01.251Z,34.09
2023-02-22T23:10:05.161Z,34.11
2023-02-22T23:11:09.145Z,34.12
2023-02-22T23:12:12.872Z,34.12
2023-02-22T23:13:16.444Z,34.12
2023-02-22T23:14:21.974Z,34.10
2023-02-22T23:15:26.398Z,34.10
2023-02-22T23:16:30.021Z,34.08
2023-02-22T23:17:33.695Z,34.08
2023-02-22T23:18:37.301Z,34.07
2023-02-22T23:19:40.929Z,34.07
2023-02-22T23:20:44.574Z,34.05
2023-02-22T23:21:49.650Z,34.05
2023-02-22T23:22:55.804Z,34.04
2023-02-22T23:23:59.446Z,34.02
2023-02-22T23:25:03.134Z,34.03
2023-02-22T23:26:08.783Z,33.88
2023-02-22T23:27:12.508Z,34.00
2023-02-22T23:28:16.300Z,34.02
2023-02-22T23:29:23.346Z,34.01
2023-02-22T23:30:27.046Z,34.04
2023-02-22T23:31:30.731Z,34.03
2023-02-22T23:32:34.341Z,34.01
2023-02-22T23:33:38.085Z,34.00
2023-02-22T23:34:41.805Z,33.98
2023-02-22T23:35:49.486Z,33.81
2023-02-22T23:36:53.302Z,34.00
2023-02-22T23:37:59.031Z,33.99
2023-02-22T23:39:02.652Z,33.99
2023-02-22T23:40:08.075Z,33.99
2023-02-22T23:41:13.888Z,33.98
2023-02-22T23:42:17.519Z,33.97
2023-02-22T23:43:21.268Z,33.97
2023-02-22T23:44:24.884Z,33.98
2023-02-22T23:45:28.510Z,33.98
2023-02-22T23:46:32.295Z,33.99
2023-02-22T23:47:35.870Z,33.99